sensor_id;sensor_type;location;lat;lon;timestamp;P1;durP1;ratioP1;P2;durP2;ratioP2
67640;SDS011;54434;50.096;20.082;2024-01-06T00:00:53;54.90;;;25.70;;
67640;SDS011;54434;50.096;20.082;2024-01-06T00:03:48;48.80;;;22.40;;
67640;SDS011;54434;50.096;20.082;2024-01-06T00:06:25;53.60;;;24.80;;
67640;SDS011;54434;50.096;20.082;2024-01-06T00:09:02;61.20;;;27.50;;
67640;SDS011;54434;50.096;20.082;2024-01-06T00:11:38;54.10;;;26.50;;
67640;SDS011;54434;50.096;20.082;2024-01-06T00:14:15;63.60;;;27.30;;
67640;SDS011;54434;50.096;20.082;2024-01-06T00:16:56;58.20;;;26.90;;
67640;SDS011;54434;50.096;20.082;2024-01-06T00:19:33;52.60;;;26.00;;
67640;SDS011;54434;50.096;20.082;2024-01-06T00:22:09;56.70;;;27.00;;
67640;SDS011;54434;50.096;20.082;2024-01-06T00:24:46;50.90;;;25.20;;
67640;SDS011;54434;50.096;20.082;2024-01-06T00:27:23;62.80;;;27.80;;
67640;SDS011;54434;50.096;20.082;2024-01-06T00:29:59;66.80;;;32.50;;
67640;SDS011;54434;50.096;20.082;2024-01-06T00:32:36;76.20;;;32.10;;
67640;SDS011;54434;50.096;20.082;2024-01-06T00:35:12;58.50;;;26.30;;
67640;SDS011;54434;50.096;20.082;2024-01-06T00:37:48;78.60;;;32.60;;
67640;SDS011;54434;50.096;20.082;2024-01-06T00:40:25;69.10;;;30.90;;
67640;SDS011;54434;50.096;20.082;2024-01-06T00:43:02;70.10;;;30.20;;
67640;SDS011;54434;50.096;20.082;2024-01-06T00:45:39;69.40;;;30.50;;
67640;SDS011;54434;50.096;20.082;2024-01-06T00:48:19;72.00;;;31.40;;
67640;SDS011;54434;50.096;20.082;2024-01-06T00:50:56;72.50;;;29.30;;
67640;SDS011;54434;50.096;20.082;2024-01-06T00:53:33;76.00;;;33.20;;
67640;SDS011;54434;50.096;20.082;2024-01-06T00:56:09;66.50;;;30.10;;
67640;SDS011;54434;50.096;20.082;2024-01-06T00:58:50;71.60;;;29.60;;
67640;SDS011;54434;50.096;20.082;2024-01-06T01:01:26;76.00;;;33.80;;
67640;SDS011;54434;50.096;20.082;2024-01-06T01:04:03;77.50;;;33.10;;
67640;SDS011;54434;50.096;20.082;2024-01-06T01:06:41;75.10;;;34.00;;
67640;SDS011;54434;50.096;20.082;2024-01-06T01:09:17;81.60;;;35.10;;
67640;SDS011;54434;50.096;20.082;2024-01-06T01:11:54;78.80;;;34.50;;
67640;SDS011;54434;50.096;20.082;2024-01-06T01:14:30;76.70;;;32.30;;
67640;SDS011;54434;50.096;20.082;2024-01-06T01:17:07;68.10;;;33.00;;
67640;SDS011;54434;50.096;20.082;2024-01-06T01:19:43;75.10;;;33.50;;
67640;SDS011;54434;50.096;20.082;2024-01-06T01:22:20;70.10;;;28.80;;
67640;SDS011;54434;50.096;20.082;2024-01-06T01:24:57;71.60;;;33.10;;
67640;SDS011;54434;50.096;20.082;2024-01-06T01:27:38;68.90;;;31.10;;
67640;SDS011;54434;50.096;20.082;2024-01-06T01:30:16;68.20;;;29.30;;
67640;SDS011;54434;50.096;20.082;2024-01-06T01:32:52;65.90;;;28.00;;
67640;SDS011;54434;50.096;20.082;2024-01-06T01:35:29;64.30;;;28.40;;
67640;SDS011;54434;50.096;20.082;2024-01-06T01:38:06;67.90;;;29.70;;
67640;SDS011;54434;50.096;20.082;2024-01-06T01:40:43;62.50;;;28.60;;
67640;SDS011;54434;50.096;20.082;2024-01-06T01:43:21;72.40;;;30.80;;
67640;SDS011;54434;50.096;20.082;2024-01-06T01:45:57;70.20;;;29.40;;
67640;SDS011;54434;50.096;20.082;2024-01-06T01:48:35;68.60;;;29.60;;
67640;SDS011;54434;50.096;20.082;2024-01-06T01:51:12;60.20;;;26.40;;
67640;SDS011;54434;50.096;20.082;2024-01-06T01:53:49;66.60;;;29.00;;
67640;SDS011;54434;50.096;20.082;2024-01-06T01:56:27;61.90;;;29.50;;
67640;SDS011;54434;50.096;20.082;2024-01-06T01:59:11;70.70;;;30.50;;
67640;SDS011;54434;50.096;20.082;2024-01-06T02:01:48;66.80;;;29.50;;
67640;SDS011;54434;50.096;20.082;2024-01-06T02:04:25;62.90;;;27.80;;
67640;SDS011;54434;50.096;20.082;2024-01-06T02:07:02;67.20;;;28.70;;
67640;SDS011;54434;50.096;20.082;2024-01-06T02:09:38;56.10;;;26.10;;
67640;SDS011;54434;50.096;20.082;2024-01-06T02:12:15;68.50;;;29.10;;
67640;SDS011;54434;50.096;20.082;2024-01-06T02:14:52;63.60;;;29.40;;
67640;SDS011;54434;50.096;20.082;2024-01-06T02:17:29;60.70;;;28.50;;
67640;SDS011;54434;50.096;20.082;2024-01-06T02:20:08;60.70;;;27.60;;
67640;SDS011;54434;50.096;20.082;2024-01-06T02:22:45;62.10;;;28.80;;
67640;SDS011;54434;50.096;20.082;2024-01-06T02:25:22;63.80;;;29.60;;
67640;SDS011;54434;50.096;20.082;2024-01-06T02:27:59;68.90;;;31.00;;
67640;SDS011;54434;50.096;20.082;2024-01-06T02:30:35;71.50;;;32.70;;
67640;SDS011;54434;50.096;20.082;2024-01-06T02:33:12;71.40;;;31.10;;
67640;SDS011;54434;50.096;20.082;2024-01-06T02:35:49;63.80;;;29.90;;
67640;SDS011;54434;50.096;20.082;2024-01-06T02:38:25;65.50;;;29.80;;
67640;SDS011;54434;50.096;20.082;2024-01-06T02:41:05;54.10;;;25.50;;
67640;SDS011;54434;50.096;20.082;2024-01-06T02:43:41;58.90;;;28.10;;
67640;SDS011;54434;50.096;20.082;2024-01-06T02:46:18;53.10;;;26.30;;
67640;SDS011;54434;50.096;20.082;2024-01-06T02:48:54;56.70;;;27.80;;
67640;SDS011;54434;50.096;20.082;2024-01-06T02:51:31;53.80;;;26.10;;
67640;SDS011;54434;50.096;20.082;2024-01-06T02:54:07;56.10;;;27.80;;
67640;SDS011;54434;50.096;20.082;2024-01-06T02:56:44;53.00;;;27.80;;
67640;SDS011;54434;50.096;20.082;2024-01-06T02:59:20;55.20;;;28.60;;
67640;SDS011;54434;50.096;20.082;2024-01-06T03:01:57;56.00;;;27.20;;
67640;SDS011;54434;50.096;20.082;2024-01-06T03:04:33;58.50;;;28.70;;
67640;SDS011;54434;50.096;20.082;2024-01-06T03:07:10;59.60;;;26.40;;
67640;SDS011;54434;50.096;20.082;2024-01-06T03:09:46;57.40;;;26.70;;
67640;SDS011;54434;50.096;20.082;2024-01-06T03:12:23;52.70;;;25.70;;
67640;SDS011;54434;50.096;20.082;2024-01-06T03:15:00;55.30;;;26.80;;
67640;SDS011;54434;50.096;20.082;2024-01-06T03:17:36;46.80;;;22.60;;
67640;SDS011;54434;50.096;20.082;2024-01-06T03:20:13;49.70;;;24.30;;
67640;SDS011;54434;50.096;20.082;2024-01-06T03:22:50;54.40;;;25.80;;
67640;SDS011;54434;50.096;20.082;2024-01-06T03:25:26;54.50;;;26.00;;
67640;SDS011;54434;50.096;20.082;2024-01-06T03:28:03;49.50;;;23.60;;
67640;SDS011;54434;50.096;20.082;2024-01-06T03:30:40;50.30;;;26.40;;
67640;SDS011;54434;50.096;20.082;2024-01-06T03:33:16;46.80;;;24.30;;
67640;SDS011;54434;50.096;20.082;2024-01-06T03:35:53;44.40;;;21.90;;
67640;SDS011;54434;50.096;20.082;2024-01-06T03:38:29;52.80;;;24.50;;
67640;SDS011;54434;50.096;20.082;2024-01-06T03:41:06;52.60;;;26.00;;
67640;SDS011;54434;50.096;20.082;2024-01-06T03:43:42;44.40;;;22.10;;
67640;SDS011;54434;50.096;20.082;2024-01-06T03:46:19;46.40;;;23.90;;
67640;SDS011;54434;50.096;20.082;2024-01-06T03:48:55;54.60;;;26.40;;
67640;SDS011;54434;50.096;20.082;2024-01-06T03:51:32;49.60;;;25.00;;
67640;SDS011;54434;50.096;20.082;2024-01-06T03:54:09;46.40;;;23.90;;
67640;SDS011;54434;50.096;20.082;2024-01-06T03:56:45;56.90;;;25.70;;
67640;SDS011;54434;50.096;20.082;2024-01-06T03:59:21;49.40;;;24.40;;
67640;SDS011;54434;50.096;20.082;2024-01-06T04:01:58;47.20;;;23.20;;
67640;SDS011;54434;50.096;20.082;2024-01-06T04:04:34;53.00;;;24.90;;
67640;SDS011;54434;50.096;20.082;2024-01-06T04:07:10;44.80;;;22.50;;
67640;SDS011;54434;50.096;20.082;2024-01-06T04:09:47;51.10;;;23.90;;
67640;SDS011;54434;50.096;20.082;2024-01-06T04:12:24;52.10;;;24.50;;
67640;SDS011;54434;50.096;20.082;2024-01-06T04:15:00;53.60;;;24.80;;
67640;SDS011;54434;50.096;20.082;2024-01-06T04:17:37;43.90;;;22.20;;
67640;SDS011;54434;50.096;20.082;2024-01-06T04:20:15;52.80;;;24.50;;
67640;SDS011;54434;50.096;20.082;2024-01-06T04:22:52;46.50;;;22.90;;
67640;SDS011;54434;50.096;20.082;2024-01-06T04:25:28;50.30;;;23.30;;
67640;SDS011;54434;50.096;20.082;2024-01-06T04:28:06;42.50;;;20.80;;
67640;SDS011;54434;50.096;20.082;2024-01-06T04:30:42;48.70;;;23.40;;
67640;SDS011;54434;50.096;20.082;2024-01-06T04:33:18;35.90;;;19.30;;
67640;SDS011;54434;50.096;20.082;2024-01-06T04:35:55;47.70;;;22.90;;
67640;SDS011;54434;50.096;20.082;2024-01-06T04:38:32;45.60;;;20.70;;
67640;SDS011;54434;50.096;20.082;2024-01-06T04:41:09;42.00;;;22.20;;
67640;SDS011;54434;50.096;20.082;2024-01-06T04:43:45;43.60;;;21.80;;
67640;SDS011;54434;50.096;20.082;2024-01-06T04:46:21;45.30;;;21.60;;
67640;SDS011;54434;50.096;20.082;2024-01-06T04:48:58;42.90;;;21.60;;
67640;SDS011;54434;50.096;20.082;2024-01-06T04:51:35;42.90;;;21.70;;
67640;SDS011;54434;50.096;20.082;2024-01-06T04:54:11;41.60;;;20.70;;
67640;SDS011;54434;50.096;20.082;2024-01-06T04:56:48;44.70;;;22.60;;
67640;SDS011;54434;50.096;20.082;2024-01-06T04:59:25;39.80;;;20.80;;
67640;SDS011;54434;50.096;20.082;2024-01-06T05:02:01;45.80;;;20.20;;
67640;SDS011;54434;50.096;20.082;2024-01-06T05:04:38;39.60;;;19.40;;
67640;SDS011;54434;50.096;20.082;2024-01-06T05:07:14;44.00;;;21.50;;
67640;SDS011;54434;50.096;20.082;2024-01-06T05:09:51;37.60;;;19.20;;
67640;SDS011;54434;50.096;20.082;2024-01-06T05:12:27;39.40;;;20.60;;
67640;SDS011;54434;50.096;20.082;2024-01-06T05:15:05;34.50;;;17.40;;
67640;SDS011;54434;50.096;20.082;2024-01-06T05:17:43;44.90;;;20.60;;
67640;SDS011;54434;50.096;20.082;2024-01-06T05:20:20;40.70;;;19.80;;
67640;SDS011;54434;50.096;20.082;2024-01-06T05:22:56;40.00;;;19.90;;
67640;SDS011;54434;50.096;20.082;2024-01-06T05:25:32;36.70;;;18.60;;
67640;SDS011;54434;50.096;20.082;2024-01-06T05:28:09;35.90;;;18.20;;
67640;SDS011;54434;50.096;20.082;2024-01-06T05:30:46;40.00;;;18.60;;
67640;SDS011;54434;50.096;20.082;2024-01-06T05:33:22;31.00;;;16.50;;
67640;SDS011;54434;50.096;20.082;2024-01-06T05:35:59;40.30;;;19.50;;
67640;SDS011;54434;50.096;20.082;2024-01-06T05:38:35;38.20;;;19.10;;
67640;SDS011;54434;50.096;20.082;2024-01-06T05:41:12;36.50;;;19.40;;
67640;SDS011;54434;50.096;20.082;2024-01-06T05:43:48;35.70;;;17.60;;
67640;SDS011;54434;50.096;20.082;2024-01-06T05:46:26;34.90;;;18.90;;
67640;SDS011;54434;50.096;20.082;2024-01-06T05:49:02;38.40;;;18.70;;
67640;SDS011;54434;50.096;20.082;2024-01-06T05:51:45;35.80;;;18.50;;
67640;SDS011;54434;50.096;20.082;2024-01-06T05:54:22;34.70;;;17.70;;
67640;SDS011;54434;50.096;20.082;2024-01-06T05:57:00;34.30;;;19.00;;
67640;SDS011;54434;50.096;20.082;2024-01-06T05:59:37;36.70;;;18.70;;
67640;SDS011;54434;50.096;20.082;2024-01-06T06:02:14;35.80;;;19.30;;
67640;SDS011;54434;50.096;20.082;2024-01-06T06:04:50;34.30;;;17.70;;
67640;SDS011;54434;50.096;20.082;2024-01-06T06:07:27;37.50;;;19.20;;
67640;SDS011;54434;50.096;20.082;2024-01-06T06:10:04;33.90;;;18.10;;
67640;SDS011;54434;50.096;20.082;2024-01-06T06:12:43;38.00;;;18.20;;
67640;SDS011;54434;50.096;20.082;2024-01-06T06:15:19;39.40;;;20.10;;
67640;SDS011;54434;50.096;20.082;2024-01-06T06:17:56;41.60;;;19.70;;
67640;SDS011;54434;50.096;20.082;2024-01-06T06:20:35;36.40;;;18.60;;
67640;SDS011;54434;50.096;20.082;2024-01-06T06:23:12;36.60;;;19.30;;
67640;SDS011;54434;50.096;20.082;2024-01-06T06:25:49;39.40;;;20.00;;
67640;SDS011;54434;50.096;20.082;2024-01-06T06:28:25;37.80;;;18.70;;
67640;SDS011;54434;50.096;20.082;2024-01-06T06:31:02;37.30;;;18.30;;
67640;SDS011;54434;50.096;20.082;2024-01-06T06:33:39;37.50;;;19.60;;
67640;SDS011;54434;50.096;20.082;2024-01-06T06:36:16;35.80;;;18.60;;
67640;SDS011;54434;50.096;20.082;2024-01-06T06:38:53;40.10;;;19.10;;
67640;SDS011;54434;50.096;20.082;2024-01-06T06:41:31;34.90;;;18.60;;
67640;SDS011;54434;50.096;20.082;2024-01-06T06:44:07;35.20;;;18.90;;
67640;SDS011;54434;50.096;20.082;2024-01-06T06:46:46;38.00;;;19.90;;
67640;SDS011;54434;50.096;20.082;2024-01-06T06:49:22;36.30;;;18.40;;
67640;SDS011;54434;50.096;20.082;2024-01-06T06:51:59;36.10;;;18.40;;
67640;SDS011;54434;50.096;20.082;2024-01-06T06:54:37;35.20;;;19.00;;
67640;SDS011;54434;50.096;20.082;2024-01-06T06:57:13;35.60;;;17.60;;
67640;SDS011;54434;50.096;20.082;2024-01-06T06:59:50;36.60;;;18.90;;
67640;SDS011;54434;50.096;20.082;2024-01-06T07:02:26;34.80;;;18.90;;
67640;SDS011;54434;50.096;20.082;2024-01-06T07:05:03;38.30;;;19.50;;
67640;SDS011;54434;50.096;20.082;2024-01-06T07:07:41;36.90;;;18.70;;
67640;SDS011;54434;50.096;20.082;2024-01-06T07:10:20;37.80;;;18.70;;
67640;SDS011;54434;50.096;20.082;2024-01-06T07:12:57;36.00;;;18.60;;
67640;SDS011;54434;50.096;20.082;2024-01-06T07:15:33;35.60;;;17.90;;
67640;SDS011;54434;50.096;20.082;2024-01-06T07:18:11;30.20;;;16.20;;
67640;SDS011;54434;50.096;20.082;2024-01-06T07:20:48;32.00;;;17.40;;
67640;SDS011;54434;50.096;20.082;2024-01-06T07:23:25;30.90;;;16.70;;
67640;SDS011;54434;50.096;20.082;2024-01-06T07:26:02;37.40;;;18.70;;
67640;SDS011;54434;50.096;20.082;2024-01-06T07:28:41;34.70;;;18.30;;
67640;SDS011;54434;50.096;20.082;2024-01-06T07:31:17;36.40;;;18.90;;
67640;SDS011;54434;50.096;20.082;2024-01-06T07:33:54;33.60;;;18.10;;
67640;SDS011;54434;50.096;20.082;2024-01-06T07:36:31;35.20;;;18.70;;
67640;SDS011;54434;50.096;20.082;2024-01-06T07:39:07;31.90;;;18.20;;
67640;SDS011;54434;50.096;20.082;2024-01-06T07:41:45;32.60;;;16.40;;
67640;SDS011;54434;50.096;20.082;2024-01-06T07:44:21;29.00;;;17.10;;
67640;SDS011;54434;50.096;20.082;2024-01-06T07:46:59;39.50;;;20.10;;
67640;SDS011;54434;50.096;20.082;2024-01-06T07:49:38;39.00;;;19.70;;
67640;SDS011;54434;50.096;20.082;2024-01-06T07:52:15;37.40;;;19.30;;
67640;SDS011;54434;50.096;20.082;2024-01-06T07:54:52;34.20;;;18.50;;
67640;SDS011;54434;50.096;20.082;2024-01-06T07:57:28;40.10;;;19.10;;
67640;SDS011;54434;50.096;20.082;2024-01-06T08:00:07;41.00;;;20.40;;
67640;SDS011;54434;50.096;20.082;2024-01-06T08:02:48;37.00;;;20.60;;
67640;SDS011;54434;50.096;20.082;2024-01-06T08:05:24;34.60;;;18.90;;
67640;SDS011;54434;50.096;20.082;2024-01-06T08:08:01;34.10;;;18.50;;
67640;SDS011;54434;50.096;20.082;2024-01-06T08:10:38;41.40;;;21.40;;
67640;SDS011;54434;50.096;20.082;2024-01-06T08:13:18;45.40;;;22.40;;
67640;SDS011;54434;50.096;20.082;2024-01-06T08:15:54;40.30;;;20.20;;
67640;SDS011;54434;50.096;20.082;2024-01-06T08:18:32;41.90;;;20.80;;
67640;SDS011;54434;50.096;20.082;2024-01-06T08:21:09;34.80;;;18.40;;
67640;SDS011;54434;50.096;20.082;2024-01-06T08:23:47;37.20;;;20.30;;
67640;SDS011;54434;50.096;20.082;2024-01-06T08:26:24;38.30;;;20.30;;
67640;SDS011;54434;50.096;20.082;2024-01-06T08:29:00;36.00;;;19.00;;
67640;SDS011;54434;50.096;20.082;2024-01-06T08:31:37;36.50;;;19.50;;
67640;SDS011;54434;50.096;20.082;2024-01-06T08:34:14;39.60;;;20.50;;
67640;SDS011;54434;50.096;20.082;2024-01-06T08:36:51;36.60;;;19.50;;
67640;SDS011;54434;50.096;20.082;2024-01-06T08:39:27;36.30;;;19.30;;
67640;SDS011;54434;50.096;20.082;2024-01-06T08:42:05;36.30;;;19.50;;
67640;SDS011;54434;50.096;20.082;2024-01-06T08:44:42;37.90;;;19.60;;
67640;SDS011;54434;50.096;20.082;2024-01-06T08:47:18;37.10;;;18.70;;
67640;SDS011;54434;50.096;20.082;2024-01-06T08:49:55;35.10;;;18.50;;
67640;SDS011;54434;50.096;20.082;2024-01-06T08:52:31;36.60;;;19.40;;
67640;SDS011;54434;50.096;20.082;2024-01-06T08:55:09;32.90;;;18.90;;
67640;SDS011;54434;50.096;20.082;2024-01-06T08:57:48;32.50;;;17.70;;
67640;SDS011;54434;50.096;20.082;2024-01-06T09:00:25;32.00;;;17.30;;
67640;SDS011;54434;50.096;20.082;2024-01-06T09:03:02;38.00;;;20.30;;
67640;SDS011;54434;50.096;20.082;2024-01-06T09:05:40;36.10;;;19.70;;
67640;SDS011;54434;50.096;20.082;2024-01-06T09:08:16;45.10;;;22.20;;
67640;SDS011;54434;50.096;20.082;2024-01-06T09:10:54;40.20;;;20.30;;
67640;SDS011;54434;50.096;20.082;2024-01-06T09:13:32;38.80;;;20.30;;
67640;SDS011;54434;50.096;20.082;2024-01-06T09:16:09;37.40;;;19.70;;
67640;SDS011;54434;50.096;20.082;2024-01-06T09:18:45;40.50;;;21.60;;
67640;SDS011;54434;50.096;20.082;2024-01-06T09:21:23;36.40;;;19.40;;
67640;SDS011;54434;50.096;20.082;2024-01-06T09:23:59;41.40;;;20.20;;
67640;SDS011;54434;50.096;20.082;2024-01-06T09:26:40;42.20;;;20.70;;
67640;SDS011;54434;50.096;20.082;2024-01-06T09:29:18;40.70;;;21.10;;
67640;SDS011;54434;50.096;20.082;2024-01-06T09:31:54;35.50;;;18.70;;
67640;SDS011;54434;50.096;20.082;2024-01-06T09:34:31;36.80;;;20.30;;
67640;SDS011;54434;50.096;20.082;2024-01-06T09:37:12;43.70;;;22.10;;
67640;SDS011;54434;50.096;20.082;2024-01-06T09:39:49;50.10;;;24.50;;
67640;SDS011;54434;50.096;20.082;2024-01-06T09:42:25;48.20;;;23.20;;
67640;SDS011;54434;50.096;20.082;2024-01-06T09:45:02;62.70;;;31.20;;
67640;SDS011;54434;50.096;20.082;2024-01-06T09:47:41;52.80;;;26.20;;
67640;SDS011;54434;50.096;20.082;2024-01-06T09:50:22;45.50;;;22.10;;
67640;SDS011;54434;50.096;20.082;2024-01-06T09:52:59;46.00;;;22.80;;
67640;SDS011;54434;50.096;20.082;2024-01-06T09:58:18;44.10;;;22.80;;
67640;SDS011;54434;50.096;20.082;2024-01-06T10:00:54;49.20;;;23.30;;
67640;SDS011;54434;50.096;20.082;2024-01-06T10:03:32;38.60;;;19.50;;
67640;SDS011;54434;50.096;20.082;2024-01-06T10:06:09;47.40;;;23.20;;
67640;SDS011;54434;50.096;20.082;2024-01-06T10:08:49;43.80;;;21.80;;
67640;SDS011;54434;50.096;20.082;2024-01-06T10:11:27;44.30;;;22.10;;
67640;SDS011;54434;50.096;20.082;2024-01-06T10:14:05;46.30;;;21.60;;
67640;SDS011;54434;50.096;20.082;2024-01-06T10:16:42;39.70;;;20.00;;
67640;SDS011;54434;50.096;20.082;2024-01-06T10:19:18;41.20;;;21.70;;
67640;SDS011;54434;50.096;20.082;2024-01-06T10:21:55;47.00;;;22.80;;
67640;SDS011;54434;50.096;20.082;2024-01-06T10:24:38;37.40;;;19.50;;
67640;SDS011;54434;50.096;20.082;2024-01-06T10:27:14;48.10;;;22.10;;
67640;SDS011;54434;50.096;20.082;2024-01-06T10:29:52;39.60;;;21.30;;
67640;SDS011;54434;50.096;20.082;2024-01-06T10:32:32;43.20;;;22.20;;
67640;SDS011;54434;50.096;20.082;2024-01-06T10:35:10;36.00;;;18.80;;
67640;SDS011;54434;50.096;20.082;2024-01-06T10:37:48;42.70;;;22.10;;
67640;SDS011;54434;50.096;20.082;2024-01-06T10:40:26;41.40;;;21.70;;
67640;SDS011;54434;50.096;20.082;2024-01-06T10:43:05;42.10;;;21.40;;
67640;SDS011;54434;50.096;20.082;2024-01-06T10:45:42;41.30;;;21.80;;
67640;SDS011;54434;50.096;20.082;2024-01-06T10:48:20;37.60;;;20.10;;
67640;SDS011;54434;50.096;20.082;2024-01-06T10:51:00;40.10;;;21.30;;
67640;SDS011;54434;50.096;20.082;2024-01-06T10:53:42;40.00;;;19.50;;
67640;SDS011;54434;50.096;20.082;2024-01-06T10:56:19;43.40;;;22.10;;
67640;SDS011;54434;50.096;20.082;2024-01-06T10:58:57;36.60;;;18.70;;
67640;SDS011;54434;50.096;20.082;2024-01-06T11:01:37;42.00;;;20.20;;
67640;SDS011;54434;50.096;20.082;2024-01-06T11:04:14;39.20;;;20.80;;
67640;SDS011;54434;50.096;20.082;2024-01-06T11:06:53;38.30;;;18.90;;
67640;SDS011;54434;50.096;20.082;2024-01-06T11:09:32;38.30;;;21.10;;
67640;SDS011;54434;50.096;20.082;2024-01-06T11:12:12;35.80;;;18.20;;
67640;SDS011;54434;50.096;20.082;2024-01-06T11:14:49;40.80;;;19.20;;
67640;SDS011;54434;50.096;20.082;2024-01-06T11:17:54;39.30;;;19.80;;
67640;SDS011;54434;50.096;20.082;2024-01-06T11:20:33;38.10;;;19.60;;
67640;SDS011;54434;50.096;20.082;2024-01-06T11:23:22;39.10;;;20.50;;
67640;SDS011;54434;50.096;20.082;2024-01-06T11:25:59;41.60;;;21.90;;
67640;SDS011;54434;50.096;20.082;2024-01-06T11:28:44;48.90;;;23.70;;
67640;SDS011;54434;50.096;20.082;2024-01-06T11:31:24;39.90;;;20.80;;
67640;SDS011;54434;50.096;20.082;2024-01-06T11:34:17;39.10;;;21.10;;
67640;SDS011;54434;50.096;20.082;2024-01-06T11:36:55;47.30;;;25.20;;
67640;SDS011;54434;50.096;20.082;2024-01-06T11:39:42;41.30;;;22.00;;
67640;SDS011;54434;50.096;20.082;2024-01-06T11:42:19;46.40;;;24.40;;
67640;SDS011;54434;50.096;20.082;2024-01-06T11:45:03;46.10;;;22.00;;
67640;SDS011;54434;50.096;20.082;2024-01-06T11:47:40;43.60;;;21.90;;
67640;SDS011;54434;50.096;20.082;2024-01-06T11:50:22;41.80;;;21.30;;
67640;SDS011;54434;50.096;20.082;2024-01-06T11:52:59;45.10;;;23.20;;
67640;SDS011;54434;50.096;20.082;2024-01-06T11:55:37;39.70;;;21.50;;
67640;SDS011;54434;50.096;20.082;2024-01-06T11:58:17;39.10;;;19.20;;
67640;SDS011;54434;50.096;20.082;2024-01-06T12:00:59;40.30;;;21.10;;
67640;SDS011;54434;50.096;20.082;2024-01-06T12:06:11;46.60;;;23.00;;
67640;SDS011;54434;50.096;20.082;2024-01-06T12:08:47;43.30;;;21.40;;
67640;SDS011;54434;50.096;20.082;2024-01-06T12:11:24;35.00;;;18.70;;
67640;SDS011;54434;50.096;20.082;2024-01-06T12:14:01;36.10;;;19.50;;
67640;SDS011;54434;50.096;20.082;2024-01-06T12:16:38;35.30;;;18.30;;
67640;SDS011;54434;50.096;20.082;2024-01-06T12:19:14;36.60;;;19.00;;
67640;SDS011;54434;50.096;20.082;2024-01-06T12:21:51;37.60;;;19.10;;
67640;SDS011;54434;50.096;20.082;2024-01-06T12:24:30;38.00;;;20.30;;
67640;SDS011;54434;50.096;20.082;2024-01-06T12:27:08;33.70;;;17.90;;
67640;SDS011;54434;50.096;20.082;2024-01-06T12:29:46;38.90;;;19.10;;
67640;SDS011;54434;50.096;20.082;2024-01-06T12:32:23;34.40;;;18.10;;
67640;SDS011;54434;50.096;20.082;2024-01-06T12:35:06;38.20;;;21.10;;
67640;SDS011;54434;50.096;20.082;2024-01-06T12:37:44;34.60;;;18.00;;
67640;SDS011;54434;50.096;20.082;2024-01-06T12:40:23;45.20;;;23.70;;
67640;SDS011;54434;50.096;20.082;2024-01-06T12:43:00;39.80;;;20.90;;
67640;SDS011;54434;50.096;20.082;2024-01-06T12:45:36;37.00;;;20.10;;
67640;SDS011;54434;50.096;20.082;2024-01-06T12:48:13;35.10;;;19.30;;
67640;SDS011;54434;50.096;20.082;2024-01-06T12:50:50;37.80;;;20.40;;
67640;SDS011;54434;50.096;20.082;2024-01-06T12:53:26;35.50;;;18.60;;
67640;SDS011;54434;50.096;20.082;2024-01-06T12:56:02;34.80;;;18.30;;
67640;SDS011;54434;50.096;20.082;2024-01-06T12:58:40;34.10;;;18.90;;
67640;SDS011;54434;50.096;20.082;2024-01-06T13:01:17;37.60;;;19.70;;
67640;SDS011;54434;50.096;20.082;2024-01-06T13:03:54;32.10;;;18.20;;
67640;SDS011;54434;50.096;20.082;2024-01-06T13:06:34;36.20;;;18.40;;
67640;SDS011;54434;50.096;20.082;2024-01-06T13:09:10;33.70;;;17.70;;
67640;SDS011;54434;50.096;20.082;2024-01-06T13:11:50;30.70;;;17.80;;
67640;SDS011;54434;50.096;20.082;2024-01-06T13:14:29;31.90;;;16.90;;
67640;SDS011;54434;50.096;20.082;2024-01-06T13:17:05;35.90;;;18.80;;
67640;SDS011;54434;50.096;20.082;2024-01-06T13:19:42;28.50;;;15.20;;
67640;SDS011;54434;50.096;20.082;2024-01-06T13:22:19;28.60;;;16.40;;
67640;SDS011;54434;50.096;20.082;2024-01-06T13:24:55;32.80;;;17.30;;
67640;SDS011;54434;50.096;20.082;2024-01-06T13:27:32;30.10;;;17.40;;
67640;SDS011;54434;50.096;20.082;2024-01-06T13:30:12;33.60;;;17.30;;
67640;SDS011;54434;50.096;20.082;2024-01-06T13:32:51;31.30;;;17.00;;
67640;SDS011;54434;50.096;20.082;2024-01-06T13:35:28;31.40;;;16.90;;
67640;SDS011;54434;50.096;20.082;2024-01-06T13:38:05;30.70;;;17.20;;
67640;SDS011;54434;50.096;20.082;2024-01-06T13:40:42;30.20;;;16.40;;
67640;SDS011;54434;50.096;20.082;2024-01-06T13:43:19;27.70;;;15.20;;
67640;SDS011;54434;50.096;20.082;2024-01-06T13:45:55;31.30;;;17.30;;
67640;SDS011;54434;50.096;20.082;2024-01-06T13:48:32;29.80;;;15.40;;
67640;SDS011;54434;50.096;20.082;2024-01-06T13:51:09;30.60;;;15.50;;
67640;SDS011;54434;50.096;20.082;2024-01-06T13:53:46;26.20;;;15.00;;
67640;SDS011;54434;50.096;20.082;2024-01-06T13:56:23;30.80;;;15.80;;
67640;SDS011;54434;50.096;20.082;2024-01-06T13:58:59;29.60;;;16.10;;
67640;SDS011;54434;50.096;20.082;2024-01-06T14:01:36;30.60;;;17.00;;
67640;SDS011;54434;50.096;20.082;2024-01-06T14:04:13;32.80;;;17.10;;
67640;SDS011;54434;50.096;20.082;2024-01-06T14:06:50;29.10;;;15.40;;
67640;SDS011;54434;50.096;20.082;2024-01-06T14:09:29;29.90;;;15.10;;
67640;SDS011;54434;50.096;20.082;2024-01-06T14:12:08;30.00;;;15.90;;
67640;SDS011;54434;50.096;20.082;2024-01-06T14:14:44;29.70;;;16.30;;
67640;SDS011;54434;50.096;20.082;2024-01-06T14:17:21;23.70;;;13.70;;
67640;SDS011;54434;50.096;20.082;2024-01-06T14:19:57;95.50;;;43.40;;
67640;SDS011;54434;50.096;20.082;2024-01-06T14:22:35;53.70;;;25.60;;
67640;SDS011;54434;50.096;20.082;2024-01-06T14:25:14;31.80;;;15.80;;
67640;SDS011;54434;50.096;20.082;2024-01-06T14:27:52;29.50;;;15.30;;
67640;SDS011;54434;50.096;20.082;2024-01-06T14:30:28;31.60;;;16.20;;
67640;SDS011;54434;50.096;20.082;2024-01-06T14:33:06;26.50;;;14.80;;
67640;SDS011;54434;50.096;20.082;2024-01-06T14:35:43;24.70;;;14.10;;
67640;SDS011;54434;50.096;20.082;2024-01-06T14:38:19;32.00;;;17.30;;
67640;SDS011;54434;50.096;20.082;2024-01-06T14:40:55;31.00;;;16.60;;
67640;SDS011;54434;50.096;20.082;2024-01-06T14:43:32;29.30;;;15.30;;
67640;SDS011;54434;50.096;20.082;2024-01-06T14:46:08;30.60;;;16.40;;
67640;SDS011;54434;50.096;20.082;2024-01-06T14:48:45;34.30;;;18.50;;
67640;SDS011;54434;50.096;20.082;2024-01-06T14:51:22;36.00;;;18.10;;
67640;SDS011;54434;50.096;20.082;2024-01-06T14:53:58;32.80;;;16.90;;
67640;SDS011;54434;50.096;20.082;2024-01-06T14:56:38;32.70;;;16.00;;
67640;SDS011;54434;50.096;20.082;2024-01-06T14:59:15;34.50;;;17.40;;
67640;SDS011;54434;50.096;20.082;2024-01-06T15:01:53;28.50;;;15.10;;
67640;SDS011;54434;50.096;20.082;2024-01-06T15:04:30;31.20;;;15.80;;
67640;SDS011;54434;50.096;20.082;2024-01-06T15:07:08;32.10;;;16.10;;
67640;SDS011;54434;50.096;20.082;2024-01-06T15:09:44;23.90;;;12.80;;
67640;SDS011;54434;50.096;20.082;2024-01-06T15:12:20;33.30;;;16.40;;